| time (UTC) | temp C | wind direction | speed KPH | gust KPH | rain 1hr cm | rain 24hr cm | rain mn cm | humidity % | barometer mb |
| 20260904181824 | 25 | 207 | 1.6 | 4.8 | 1.60 | 3.63 | 3.23 | 84 | 1016.6 |
| 20260904181525 | 25 | 233 | 0.0 | 4.8 | 1.83 | 3.61 | 3.20 | 83 | 1016.6 |
| 20260904181328 | 25 | 238 | 1.6 | 8.0 | 2.24 | 3.61 | 3.20 | 82 | 1016.5 |
| 20260904180832 | 25 | 250 | 3.2 | 8.0 | 2.79 | 3.61 | 3.20 | 81 | 1016.3 |
| 20260904180318 | 26 | 269 | 3.2 | 8.0 | 2.79 | 3.61 | 3.20 | 82 | 1016.2 |
| 20260904180025 | 26 | 253 | 0.0 | 6.4 | 2.74 | 3.56 | 3.15 | 83 | 1016.3 |
| 20260904175857 | 27 | 253 | 1.6 | 6.4 | 2.72 | 3.53 | 3.12 | 85 | 1016.3 |
| 20260904175404 | 27 | 290 | 1.6 | 3.2 | 2.64 | 3.45 | 3.05 | 86 | 1016.6 |
| 20260904174846 | 27 | 127 | 0.0 | 3.2 | 2.29 | 3.10 | 2.69 | 85 | 1016.6 |
| 20260904174530 | 27 | 124 | 0.0 | 4.8 | 2.21 | 3.02 | 2.62 | 84 | 1016.5 |
| 20260904174326 | 27 | 124 | 0.0 | 4.8 | 2.11 | 2.92 | 2.51 | 85 | 1016.4 |
| 20260904173830 | 27 | 127 | 1.6 | 4.8 | 1.85 | 2.67 | 2.26 | 84 | 1016.3 |
| 20260904173335 | 27 | 5 | 0.0 | 9.7 | 1.60 | 2.41 | 2.01 | 83 | 1016.2 |
| 20260904173005 | 27 | 3 | 0.0 | 9.7 | 1.57 | 2.39 | 1.98 | 81 | 1016.3 |
| 20260904172815 | 28 | 359 | 3.2 | 9.7 | 1.55 | 2.36 | 1.96 | 80 | 1016.4 |
| 20260904172312 | 28 | 1 | 0.0 | 4.8 | 1.42 | 2.24 | 1.83 | 79 | 1016.5 |
| 20260904171836 | 30 | 66 | 1.6 | 4.8 | 1.19 | 2.01 | 1.60 | 78 | 1016.7 |
| 20260904171533 | 30 | 251 | 0.0 | 4.8 | 0.91 | 1.73 | 1.32 | 76 | 1017.0 |
| 20260904171317 | 31 | 58 | 1.6 | 4.8 | 0.56 | 1.37 | 0.97 | 75 | 1017.0 |
| 20260904170820 | 31 | 92 | 0.0 | 0.0 | 0.00 | 0.81 | 0.41 | 71 | 1016.6 |
| 20260904170339 | 31 | 92 | 0.0 | 0.0 | 0.00 | 0.81 | 0.41 | 71 | 1016.5 |
| 20260904170040 | 31 | 92 | 0.0 | 1.6 | 0.00 | 0.81 | 0.41 | 71 | 1016.6 |
| 20260904165850 | 31 | 92 | 0.0 | 1.6 | 0.00 | 0.81 | 0.41 | 71 | 1016.6 |
| 20260904165332 | 32 | 67 | 0.0 | 3.2 | 0.00 | 0.81 | 0.41 | 71 | 1016.6 |
| 20260904164815 | 31 | 343 | 1.6 | 6.4 | 0.00 | 0.81 | 0.41 | 72 | 1016.5 |
| 20260904164604 | 31 | 341 | 1.6 | 6.4 | 0.00 | 0.81 | 0.41 | 72 | 1016.6 |
| 20260904164320 | 31 | 14 | 1.6 | 6.4 | 0.00 | 0.81 | 0.41 | 75 | 1016.5 |
| 20260904163813 | 31 | 120 | 0.0 | 3.2 | 0.00 | 0.81 | 0.41 | 76 | 1016.6 |
| 20260904163312 | 30 | 335 | 0.0 | 3.2 | 0.15 | 0.81 | 0.41 | 77 | 1016.7 |
| 20260904163046 | 30 | 37 | 0.0 | 3.2 | 0.30 | 0.81 | 0.41 | 78 | 1016.6 |
| 20260904162824 | 30 | 352 | 0.0 | 3.2 | 0.38 | 0.81 | 0.41 | 78 | 1016.7 |
| 20260904162329 | 29 | 3 | 0.0 | 4.8 | 0.38 | 0.81 | 0.41 | 77 | 1016.9 |
| 20260904161832 | 30 | 18 | 0.0 | 4.8 | 0.38 | 0.81 | 0.41 | 79 | 1017.1 |
| 20260904161537 | 29 | 39 | 0.0 | 4.8 | 0.38 | 0.81 | 0.41 | 82 | 1017.2 |
| 20260904161337 | 29 | 352 | 0.0 | 0.0 | 0.38 | 0.81 | 0.41 | 83 | 1017.2 |
| 20260904160333 | 28 | 12 | 0.0 | 1.6 | 0.38 | 0.81 | 0.41 | 81 | 1017.2 |
| 20260904160104 | 28 | 46 | 0.0 | 1.6 | 0.38 | 0.81 | 0.41 | 82 | 1017.2 |
| 20260904155816 | 28 | 47 | 0.0 | 1.6 | 0.38 | 0.81 | 0.41 | 81 | 1017.4 |
| 20260904155320 | 28 | 72 | 0.0 | 1.6 | 0.38 | 0.81 | 0.41 | 80 | 1017.4 |
| 20260904154812 | 28 | 4 | 0.0 | 1.6 | 0.38 | 0.81 | 0.41 | 80 | 1017.3 |
| 20260904154513 | 28 | 322 | 0.0 | 1.6 | 0.38 | 0.81 | 0.41 | 81 | 1017.3 |
| 20260904154316 | 28 | 356 | 0.0 | 0.0 | 0.38 | 0.81 | 0.41 | 81 | 1017.2 |
| 20260904153821 | 28 | 20 | 0.0 | 14.5 | 0.38 | 0.81 | 0.41 | 78 | 1017.3 |
| 20260904153326 | 30 | 67 | 4.8 | 14.5 | 0.23 | 0.66 | 0.25 | 73 | 1017.3 |
| 20260904153011 | 30 | 86 | 1.6 | 4.8 | 0.05 | 0.48 | 0.08 | 73 | 1017.3 |
| 20260904152810 | 31 | 237 | 0.0 | 1.6 | 0.00 | 0.43 | 0.03 | 71 | 1017.2 |
| 20260904152312 | 31 | 330 | 0.0 | 1.6 | 0.00 | 0.43 | 0.03 | 71 | 1017.1 |
| 20260904151815 | 31 | 330 | 0.0 | 1.6 | 0.00 | 0.43 | 0.03 | 71 | 1017.0 |
| 20260904151528 | 30 | 333 | 0.0 | 3.2 | 0.00 | 0.43 | 0.03 | 70 | 1017.0 |
| 20260904151321 | 31 | 333 | 0.0 | 3.2 | 0.00 | 0.43 | 0.03 | 71 | 1017.1 |
| 20260904150826 | 30 | 338 | 0.0 | 1.6 | 0.00 | 0.43 | 0.03 | 71 | 1017.1 |
| 20260904150309 | 30 | 70 | 0.0 | 1.6 | 0.00 | 0.43 | 0.03 | 72 | 1017.0 |
| 20260904150017 | 30 | 70 | 0.0 | 0.0 | 0.00 | 0.43 | 0.03 | 71 | 1017.0 |
| 20260904145813 | 30 | 70 | 0.0 | 0.0 | 0.00 | 0.43 | 0.03 | 72 | 1016.9 |
| 20260904145318 | 30 | 70 | 0.0 | 0.0 | 0.00 | 0.43 | 0.03 | 72 | 1016.8 |
| 20260904144822 | 30 | 70 | 0.0 | 0.0 | 0.00 | 0.43 | 0.03 | 72 | 1016.8 |
| 20260904144514 | 29 | 70 | 0.0 | 0.0 | 0.00 | 0.43 | 0.03 | 74 | 1016.7 |
| 20260904144325 | 30 | 70 | 0.0 | 0.0 | 0.00 | 0.43 | 0.03 | 74 | 1016.7 |
| 20260904143810 | 29 | 70 | 0.0 | 1.6 | 0.00 | 0.43 | 0.03 | 75 | 1016.7 |
| 20260904143314 | 29 | 70 | 0.0 | 1.6 | 0.00 | 0.43 | 0.03 | 74 | 1016.7 |
| 20260904143010 | 28 | 70 | 0.0 | 0.0 | 0.00 | 0.43 | 0.03 | 75 | 1016.8 |
| 20260904142817 | 28 | 70 | 0.0 | 0.0 | 0.00 | 0.43 | 0.03 | 75 | 1016.7 |
| 20260904142321 | 28 | 70 | 0.0 | 0.0 | 0.00 | 0.43 | 0.03 | 76 | 1016.7 |
| 20260904141826 | 28 | 70 | 0.0 | 0.0 | 0.00 | 0.43 | 0.03 | 78 | 1016.7 |
| 20260904141514 | 28 | 70 | 0.0 | 0.0 | 0.00 | 0.43 | 0.03 | 77 | 1016.8 |
| 20260904141308 | 28 | 70 | 0.0 | 0.0 | 0.00 | 0.43 | 0.03 | 77 | 1016.8 |
| 20260904140812 | 28 | 71 | 0.0 | 0.0 | 0.00 | 0.43 | 0.03 | 78 | 1016.8 |
| 20260904140313 | 27 | 70 | 0.0 | 0.0 | 0.00 | 0.43 | 0.03 | 77 | 1016.8 |
| 20260904140011 | 27 | 70 | 0.0 | 0.0 | 0.00 | 0.43 | 0.03 | 78 | 1016.7 |
| 20260904135815 | 27 | 70 | 0.0 | 0.0 | 0.00 | 0.43 | 0.03 | 79 | 1016.7 |
| 20260904135314 | 27 | 70 | 0.0 | 1.6 | 0.00 | 0.43 | 0.03 | 78 | 1016.6 |
| 20260904134818 | 27 | 71 | 0.0 | 1.6 | 0.00 | 0.43 | 0.03 | 78 | 1016.7 |
| 20260904134601 | 27 | 70 | 0.0 | 0.0 | 0.00 | 0.43 | 0.03 | 79 | 1016.8 |
| 20260904134323 | 27 | 70 | 0.0 | 0.0 | 0.00 | 0.43 | 0.03 | 78 | 1016.5 |
| 20260904133856 | 27 | 70 | 0.0 | 1.6 | 0.00 | 0.43 | 0.03 | 78 | 1016.5 |
| 20260904133310 | 27 | 71 | 0.0 | 6.4 | 0.00 | 0.43 | 0.03 | 77 | 1016.6 |
| 20260904133031 | 27 | 71 | 0.0 | 8.0 | 0.00 | 0.43 | 0.03 | 77 | 1016.4 |
| 20260904132822 | 27 | 123 | 1.6 | 12.9 | 0.00 | 0.43 | 0.03 | 77 | 1016.6 |
| 20260904132308 | 27 | 94 | 4.8 | 19.3 | 0.00 | 0.43 | 0.03 | 78 | 1016.6 |
| 20260904131810 | 27 | 65 | 6.4 | 19.3 | 0.00 | 0.43 | 0.03 | 80 | 1016.8 |
| 20260904131509 | 27 | 68 | 3.2 | 19.3 | 0.00 | 0.43 | 0.03 | 85 | 1016.8 |
| 20260904131314 | 27 | 89 | 1.6 | 3.2 | 0.00 | 0.43 | 0.03 | 84 | 1016.8 |
| 20260904130817 | 27 | 91 | 0.0 | 0.0 | 0.00 | 0.43 | 0.03 | 86 | 1016.4 |
| 20260904130336 | 27 | 91 | 0.0 | 0.0 | 0.00 | 0.43 | 0.03 | 85 | 1016.3 |
| 20260904130055 | 26 | 91 | 0.0 | 0.0 | 0.00 | 0.43 | 0.03 | 86 | 1016.3 |
| 20260904125819 | 27 | 91 | 0.0 | 0.0 | 0.00 | 0.43 | 0.03 | 87 | 1016.5 |
| 20260904125315 | 27 | 91 | 0.0 | 0.0 | 0.00 | 0.43 | 0.03 | 87 | 1016.1 |
| 20260904124829 | 27 | 91 | 0.0 | 0.0 | 0.00 | 0.43 | 0.03 | 87 | 1016.0 |
| 20260904124535 | 26 | 91 | 0.0 | 0.0 | 0.00 | 0.43 | 0.03 | 87 | 1016.1 |
| 20260904124333 | 26 | 91 | 0.0 | 0.0 | 0.00 | 0.43 | 0.03 | 88 | 1016.2 |
| 20260904123838 | 26 | 91 | 0.0 | 1.6 | 0.00 | 0.43 | 0.03 | 88 | 1016.2 |
| 20260904123341 | 26 | 91 | 0.0 | 1.6 | 0.00 | 0.43 | 0.03 | 88 | 1016.1 |
| 20260904123046 | 26 | 91 | 0.0 | 3.2 | 0.00 | 0.43 | 0.03 | 88 | 1016.1 |
| 20260904122817 | 26 | 91 | 0.0 | 4.8 | 0.00 | 0.43 | 0.03 | 89 | 1016.0 |
| 20260904122344 | 26 | 91 | 0.0 | 4.8 | 0.00 | 0.43 | 0.03 | 89 | 1016.1 |
| 20260904121821 | 26 | 87 | 0.0 | 1.6 | 0.00 | 0.43 | 0.03 | 89 | 1016.2 |
| 20260904121543 | 26 | 128 | 0.0 | 0.0 | 0.00 | 0.43 | 0.03 | 90 | 1016.2 |
| 20260904121319 | 26 | 128 | 0.0 | 0.0 | 0.00 | 0.43 | 0.03 | 89 | 1016.0 |
| 20260904120819 | 26 | 128 | 0.0 | 0.0 | 0.00 | 0.43 | 0.03 | 89 | 1015.9 |
| 20260904120323 | 26 | 128 | 0.0 | 0.0 | 0.00 | 0.43 | 0.03 | 89 | 1015.9 |
| 20260904115843 | 26 | 128 | 0.0 | 0.0 | 0.00 | 0.43 | 0.03 | 89 | 1015.9 |
| 20260904115327 | 26 | 128 | 0.0 | 0.0 | 0.00 | 0.43 | 0.03 | 89 | 1016.0 |
| 20260904114830 | 26 | 128 | 0.0 | 0.0 | 0.00 | 0.43 | 0.03 | 89 | 1015.8 |
| 20260904114509 | 25 | 128 | 0.0 | 0.0 | 0.00 | 0.43 | 0.03 | 89 | 1015.8 |
| 20260904114313 | 26 | 128 | 0.0 | 0.0 | 0.00 | 0.43 | 0.03 | 89 | 1015.8 |
| 20260904113817 | 26 | 128 | 0.0 | 0.0 | 0.00 | 0.43 | 0.03 | 89 | 1015.7 |
| 20260904113322 | 26 | 128 | 0.0 | 0.0 | 0.00 | 0.43 | 0.03 | 89 | 1015.6 |
| 20260904113010 | 25 | 128 | 0.0 | 0.0 | 0.00 | 0.43 | 0.03 | 89 | 1015.5 |
| 20260904112826 | 26 | 128 | 0.0 | 0.0 | 0.00 | 0.43 | 0.03 | 89 | 1015.5 |
| 20260904112311 | 26 | 128 | 0.0 | 0.0 | 0.00 | 0.43 | 0.03 | 89 | 1015.5 |
| 20260904111815 | 26 | 128 | 0.0 | 0.0 | 0.00 | 0.43 | 0.03 | 89 | 1015.5 |
| 20260904111513 | 25 | 128 | 0.0 | 0.0 | 0.00 | 0.43 | 0.03 | 89 | 1015.5 |
| 20260904111319 | 26 | 128 | 0.0 | 0.0 | 0.00 | 0.43 | 0.03 | 89 | 1015.4 |
| 20260904110821 | 26 | 127 | 0.0 | 0.0 | 0.00 | 0.43 | 0.03 | 89 | 1015.4 |
| 20260904110325 | 26 | 127 | 0.0 | 0.0 | 0.00 | 0.43 | 0.03 | 89 | 1015.2 |
| 20260904110045 | 25 | 127 | 0.0 | 0.0 | 0.00 | 0.43 | 0.03 | 89 | 1015.3 |
| 20260904105857 | 26 | 127 | 0.0 | 0.0 | 0.00 | 0.43 | 0.03 | 89 | 1015.1 |
| 20260904105316 | 26 | 127 | 0.0 | 0.0 | 0.00 | 0.43 | 0.03 | 89 | 1015.1 |
| 20260904104809 | 26 | 127 | 0.0 | 0.0 | 0.00 | 0.43 | 0.03 | 89 | 1015.0 |
| 20260904104510 | 25 | 127 | 0.0 | 0.0 | 0.00 | 0.43 | 0.03 | 89 | 1015.0 |
| 20260904104313 | 26 | 127 | 0.0 | 0.0 | 0.00 | 0.43 | 0.03 | 89 | 1014.9 |
| 20260904103818 | 26 | 127 | 0.0 | 0.0 | 0.00 | 0.43 | 0.03 | 89 | 1014.9 |
| 20260904103342 | 26 | 127 | 0.0 | 0.0 | 0.00 | 0.43 | 0.03 | 89 | 1014.8 |
| 20260904103042 | 25 | 127 | 0.0 | 0.0 | 0.00 | 0.43 | 0.03 | 89 | 1014.8 |
| 20260904102818 | 26 | 127 | 0.0 | 0.0 | 0.00 | 0.43 | 0.03 | 89 | 1014.6 |
| 20260904102330 | 26 | 127 | 0.0 | 0.0 | 0.00 | 0.43 | 0.03 | 89 | 1014.7 |
| 20260904101834 | 26 | 127 | 0.0 | 0.0 | 0.00 | 0.43 | 0.03 | 89 | 1014.7 |
| 20260904101521 | 25 | 127 | 0.0 | 0.0 | 0.00 | 0.43 | 0.03 | 89 | 1014.6 |
| 20260904101318 | 26 | 127 | 0.0 | 0.0 | 0.00 | 0.43 | 0.03 | 89 | 1014.7 |
| 20260904100819 | 25 | 127 | 0.0 | 0.0 | 0.00 | 0.43 | 0.03 | 89 | 1014.5 |
| 20260904100318 | 25 | 127 | 0.0 | 0.0 | 0.03 | 0.43 | 0.03 | 89 | 1014.4 |
| 20260904100001 | 25 | 127 | 0.0 | 0.0 | 0.03 | 0.43 | 0.03 | 89 | 1014.4 |
| 20260904095822 | 25 | 127 | 0.0 | 0.0 | 0.03 | 0.43 | 0.03 | 89 | 1014.4 |
| 20260904095326 | 26 | 127 | 0.0 | 0.0 | 0.03 | 0.43 | 0.03 | 89 | 1014.4 |
| 20260904094809 | 26 | 127 | 0.0 | 0.0 | 0.03 | 0.43 | 0.03 | 89 | 1014.4 |
| 20260904094500 | 25 | 127 | 0.0 | 0.0 | 0.03 | 0.43 | 0.03 | 89 | 1014.4 |
| 20260904094312 | 26 | 127 | 0.0 | 0.0 | 0.03 | 0.43 | 0.03 | 89 | 1014.4 |
| 20260904093825 | 26 | 127 | 0.0 | 0.0 | 0.03 | 0.43 | 0.03 | 89 | 1014.2 |
| 20260904093328 | 26 | 127 | 0.0 | 0.0 | 0.03 | 0.43 | 0.03 | 89 | 1014.2 |
| 20260904093005 | 25 | 127 | 0.0 | 0.0 | 0.03 | 0.43 | 0.03 | 89 | 1014.2 |
| 20260904092811 | 26 | 127 | 0.0 | 0.0 | 0.03 | 0.43 | 0.03 | 89 | 1014.2 |
| 20260904092315 | 26 | 127 | 0.0 | 0.0 | 0.03 | 0.43 | 0.03 | 89 | 1014.2 |
| 20260904091839 | 26 | 127 | 0.0 | 0.0 | 0.03 | 0.43 | 0.03 | 88 | 1014.1 |
| 20260904091534 | 25 | 127 | 0.0 | 0.0 | 0.03 | 0.43 | 0.03 | 88 | 1014.2 |
| 20260904091344 | 26 | 127 | 0.0 | 0.0 | 0.03 | 0.43 | 0.03 | 88 | 1014.2 |
| 20260904090821 | 26 | 127 | 0.0 | 0.0 | 0.03 | 0.43 | 0.03 | 88 | 1014.2 |
| 20260904090314 | 26 | 127 | 0.0 | 0.0 | 0.00 | 0.41 | 0.00 | 88 | 1014.2 |
| 20260904090045 | 25 | 127 | 0.0 | 0.0 | 0.00 | 0.41 | 0.00 | 89 | 1014.2 |
| 20260904085847 | 26 | 127 | 0.0 | 0.0 | 0.00 | 0.41 | 0.00 | 88 | 1014.3 |
| 20260904085329 | 26 | 127 | 0.0 | 0.0 | 0.00 | 0.41 | 0.00 | 89 | 1014.2 |
| 20260904084814 | 26 | 127 | 0.0 | 0.0 | 0.00 | 0.41 | 0.00 | 88 | 1014.2 |
| 20260904084523 | 25 | 127 | 0.0 | 0.0 | 0.00 | 0.41 | 0.00 | 88 | 1014.1 |
| 20260904084318 | 26 | 127 | 0.0 | 0.0 | 0.00 | 0.41 | 0.00 | 88 | 1014.2 |
| 20260904083822 | 26 | 127 | 0.0 | 0.0 | 0.00 | 0.41 | 0.00 | 89 | 1014.3 |
| 20260904083326 | 25 | 127 | 0.0 | 0.0 | 0.00 | 0.41 | 0.00 | 88 | 1014.2 |
| 20260904083021 | 25 | 127 | 0.0 | 0.0 | 0.00 | 0.41 | 0.00 | 88 | 1014.2 |
| 20260904082830 | 25 | 127 | 0.0 | 0.0 | 0.00 | 0.41 | 0.00 | 88 | 1014.2 |
| 20260904082315 | 26 | 127 | 0.0 | 0.0 | 0.00 | 0.41 | 0.00 | 88 | 1014.2 |
| 20260904081818 | 26 | 127 | 0.0 | 0.0 | 0.00 | 0.41 | 0.00 | 88 | 1014.2 |
| 20260904081520 | 25 | 127 | 0.0 | 0.0 | 0.00 | 0.41 | 0.00 | 88 | 1014.1 |
| 20260904081340 | 26 | 127 | 0.0 | 0.0 | 0.00 | 0.41 | 0.00 | 88 | 1014.0 |
| 20260904080823 | 26 | 127 | 0.0 | 0.0 | 0.00 | 0.41 | 0.00 | 88 | 1014.1 |
| 20260904080321 | 26 | 127 | 0.0 | 0.0 | 0.00 | 0.41 | 0.00 | 88 | 1014.0 |
| 20260904080107 | 25 | 127 | 0.0 | 0.0 | 0.00 | 0.41 | 0.00 | 88 | 1014.0 |
| 20260904075851 | 25 | 127 | 0.0 | 0.0 | 0.00 | 0.41 | 0.00 | 88 | 1014.0 |
| 20260904075334 | 25 | 127 | 0.0 | 0.0 | 0.00 | 0.41 | 0.00 | 88 | 1013.9 |
| 20260904074838 | 25 | 127 | 0.0 | 0.0 | 0.00 | 0.41 | 0.00 | 88 | 1014.0 |
| 20260904074553 | 25 | 127 | 0.0 | 0.0 | 0.00 | 0.41 | 0.00 | 88 | 1014.0 |
| 20260904074314 | 26 | 127 | 0.0 | 0.0 | 0.00 | 0.41 | 0.00 | 88 | 1014.2 |
| 20260904073818 | 26 | 127 | 0.0 | 0.0 | 0.00 | 0.41 | 0.00 | 88 | 1014.1 |
| 20260904073323 | 26 | 127 | 0.0 | 0.0 | 0.00 | 0.41 | 0.00 | 88 | 1014.0 |
| 20260904073112 | 25 | 127 | 0.0 | 0.0 | 0.00 | 0.41 | 0.00 | 88 | 1013.9 |
| 20260904072819 | 26 | 127 | 0.0 | 0.0 | 0.00 | 0.41 | 0.00 | 87 | 1014.0 |
| 20260904072317 | 26 | 127 | 0.0 | 0.0 | 0.00 | 0.41 | 0.00 | 88 | 1014.0 |
| 20260904071843 | 26 | 127 | 0.0 | 0.0 | 0.00 | 0.41 | 0.00 | 88 | 1014.1 |
| 20260904071602 | 25 | 127 | 0.0 | 0.0 | 0.00 | 0.41 | 0.00 | 87 | 1014.0 |
| 20260904071320 | 26 | 127 | 0.0 | 0.0 | 0.00 | 0.41 | 0.00 | 87 | 1014.1 |
| 20260904070843 | 26 | 127 | 0.0 | 0.0 | 0.00 | 0.41 | 0.00 | 87 | 1014.1 |
| 20260904070328 | 26 | 127 | 0.0 | 0.0 | 0.00 | 0.41 | 0.00 | 87 | 1014.2 |
| 20260904070025 | 25 | 127 | 0.0 | 0.0 | 0.00 | 0.41 | 0.00 | 87 | 1014.3 |
| 20260904065812 | 26 | 127 | 0.0 | 0.0 | 0.00 | 0.41 | 0.00 | 87 | 1014.2 |
| 20260904065316 | 26 | 127 | 0.0 | 0.0 | 0.00 | 0.41 | 0.00 | 87 | 1014.2 |
| 20260904064819 | 26 | 127 | 0.0 | 0.0 | 0.00 | 0.41 | 0.00 | 87 | 1014.1 |
| 20260904064520 | 25 | 127 | 0.0 | 0.0 | 0.00 | 0.41 | 0.00 | 87 | 1014.2 |
| 20260904064344 | 26 | 127 | 0.0 | 0.0 | 0.00 | 0.41 | 0.00 | 87 | 1014.2 |
| 20260904063849 | 26 | 127 | 0.0 | 0.0 | 0.00 | 0.41 | 0.00 | 87 | 1014.2 |
| 20260904063331 | 26 | 127 | 0.0 | 0.0 | 0.00 | 0.41 | 0.00 | 87 | 1014.3 |
| 20260904063006 | 25 | 127 | 0.0 | 0.0 | 0.00 | 0.41 | 0.00 | 87 | 1014.3 |
| 20260904062814 | 26 | 127 | 0.0 | 0.0 | 0.00 | 0.41 | 0.00 | 86 | 1014.3 |
| 20260904062318 | 26 | 127 | 0.0 | 0.0 | 0.00 | 0.41 | 0.00 | 87 | 1014.4 |
| 20260904061822 | 26 | 127 | 0.0 | 0.0 | 0.00 | 0.41 | 0.00 | 86 | 1014.4 |
| 20260904061507 | 26 | 127 | 0.0 | 0.0 | 0.00 | 0.41 | 0.00 | 86 | 1014.5 |
| 20260904061322 | 26 | 127 | 0.0 | 0.0 | 0.00 | 0.41 | 0.00 | 86 | 1014.5 |
| 20260904060826 | 26 | 127 | 0.0 | 0.0 | 0.00 | 0.41 | 0.00 | 86 | 1014.4 |
| 20260904060310 | 26 | 127 | 0.0 | 0.0 | 0.00 | 0.41 | 0.00 | 86 | 1014.5 |
| 20260904060006 | 26 | 127 | 0.0 | 0.0 | 0.00 | 0.41 | 0.00 | 86 | 1014.6 |
| 20260904055813 | 26 | 127 | 0.0 | 0.0 | 0.00 | 0.41 | 0.00 | 86 | 1014.6 |
| 20260904054824 | 26 | 127 | 0.0 | 0.0 | 0.00 | 0.41 | 0.00 | 86 | 1014.7 |
| 20260904054553 | 26 | 127 | 0.0 | 0.0 | 0.00 | 0.41 | 0.00 | 86 | 1014.6 |
| 20260904054350 | 26 | 127 | 0.0 | 0.0 | 0.00 | 0.41 | 0.00 | 86 | 1014.6 |
| 20260904053834 | 26 | 127 | 0.0 | 0.0 | 0.00 | 0.41 | 0.00 | 86 | 1014.7 |
| 20260904053315 | 26 | 127 | 0.0 | 0.0 | 0.00 | 0.41 | 0.00 | 86 | 1014.9 |
| 20260904053002 | 26 | 127 | 0.0 | 0.0 | 0.00 | 0.41 | 0.00 | 86 | 1014.9 |
| 20260904052818 | 26 | 127 | 0.0 | 0.0 | 0.00 | 0.41 | 0.00 | 86 | 1014.9 |
| 20260904052323 | 26 | 127 | 0.0 | 0.0 | 0.00 | 0.41 | 0.00 | 86 | 1014.8 |
| 20260904051819 | 26 | 127 | 0.0 | 0.0 | 0.00 | 0.41 | 0.00 | 86 | 1014.9 |
| 20260904051551 | 26 | 127 | 0.0 | 0.0 | 0.00 | 0.41 | 0.00 | 86 | 1014.9 |
| 20260904051323 | 26 | 127 | 0.0 | 0.0 | 0.00 | 0.41 | 0.00 | 86 | 1014.8 |
| 20260904050821 | 26 | 127 | 0.0 | 0.0 | 0.00 | 0.41 | 0.00 | 86 | 1015.0 |
| 20260904050355 | 26 | 127 | 0.0 | 0.0 | 0.00 | 0.41 | 0.00 | 86 | 1015.1 |
| 20260904050028 | 26 | 127 | 0.0 | 0.0 | 0.00 | 0.41 | 0.00 | 86 | 1015.0 |
| 20260904045838 | 26 | 127 | 0.0 | 0.0 | 0.00 | 0.43 | 0.00 | 86 | 1015.1 |
| 20260904045323 | 26 | 127 | 0.0 | 0.0 | 0.00 | 0.43 | 0.00 | 85 | 1015.1 |
| 20260904044820 | 26 | 127 | 0.0 | 0.0 | 0.00 | 0.43 | 0.00 | 85 | 1015.0 |
| 20260904044542 | 26 | 127 | 0.0 | 0.0 | 0.00 | 0.43 | 0.00 | 85 | 1015.1 |
| 20260904044317 | 26 | 127 | 0.0 | 0.0 | 0.00 | 0.43 | 0.00 | 85 | 1015.1 |
| 20260904043814 | 26 | 127 | 0.0 | 0.0 | 0.00 | 0.43 | 0.00 | 85 | 1015.1 |
| 20260904043339 | 26 | 127 | 0.0 | 0.0 | 0.00 | 0.43 | 0.00 | 85 | 1015.2 |
| 20260904043103 | 26 | 127 | 0.0 | 0.0 | 0.00 | 0.43 | 0.00 | 85 | 1015.2 |
| 20260904042824 | 26 | 127 | 0.0 | 0.0 | 0.00 | 0.43 | 0.00 | 84 | 1015.2 |
| 20260904042320 | 26 | 127 | 0.0 | 0.0 | 0.00 | 0.43 | 0.00 | 84 | 1015.1 |
| 20260904041836 | 26 | 127 | 0.0 | 0.0 | 0.00 | 0.43 | 0.00 | 84 | 1015.1 |
| 20260904041524 | 26 | 127 | 0.0 | 0.0 | 0.00 | 0.43 | 0.00 | 84 | 1015.1 |
| 20260904041335 | 26 | 127 | 0.0 | 0.0 | 0.00 | 0.43 | 0.00 | 84 | 1015.2 |
| 20260904040819 | 26 | 127 | 0.0 | 0.0 | 0.00 | 0.43 | 0.00 | 83 | 1015.2 |
| 20260904040344 | 26 | 127 | 0.0 | 0.0 | 0.00 | 0.43 | 0.00 | 84 | 1015.2 |
| 20260904040002 | 26 | 127 | 0.0 | 0.0 | 0.00 | 0.43 | 0.00 | 84 | 1015.4 |
| 20260904035826 | 26 | 127 | 0.0 | 0.0 | 0.00 | 0.43 | 0.43 | 84 | 1015.4 |
| 20260904035311 | 26 | 127 | 0.0 | 0.0 | 0.00 | 0.43 | 0.43 | 84 | 1015.4 |
| 20260904034814 | 26 | 127 | 0.0 | 0.0 | 0.00 | 0.43 | 0.43 | 83 | 1015.4 |
| 20260904034502 | 26 | 127 | 0.0 | 0.0 | 0.00 | 0.43 | 0.43 | 84 | 1015.3 |
| 20260904034317 | 26 | 127 | 0.0 | 0.0 | 0.00 | 0.43 | 0.43 | 84 | 1015.3 |
| 20260904033820 | 26 | 127 | 0.0 | 0.0 | 0.00 | 0.43 | 0.43 | 83 | 1015.4 |
| 20260904033324 | 26 | 127 | 0.0 | 0.0 | 0.00 | 0.43 | 0.43 | 83 | 1015.4 |
| 20260904033105 | 26 | 127 | 0.0 | 0.0 | 0.00 | 0.43 | 0.43 | 83 | 1015.5 |
| 20260904032828 | 26 | 127 | 0.0 | 0.0 | 0.00 | 0.43 | 0.43 | 82 | 1015.4 |
| 20260904032311 | 26 | 127 | 0.0 | 0.0 | 0.00 | 0.43 | 0.43 | 82 | 1015.5 |
| 20260904031815 | 26 | 127 | 0.0 | 0.0 | 0.00 | 0.43 | 0.43 | 82 | 1015.5 |
| 20260904031502 | 26 | 127 | 0.0 | 0.0 | 0.00 | 0.43 | 0.43 | 82 | 1015.5 |
| 20260904031319 | 27 | 127 | 0.0 | 0.0 | 0.00 | 0.43 | 0.43 | 82 | 1015.4 |
| 20260904030824 | 27 | 127 | 0.0 | 0.0 | 0.00 | 0.43 | 0.43 | 82 | 1015.4 |
| 20260904030316 | 27 | 127 | 0.0 | 0.0 | 0.00 | 0.43 | 0.43 | 82 | 1015.5 |
| 20260904030057 | 26 | 127 | 0.0 | 0.0 | 0.00 | 0.43 | 0.43 | 81 | 1015.5 |
| 20260904025819 | 27 | 127 | 0.0 | 0.0 | 0.00 | 0.43 | 0.43 | 81 | 1015.6 |
| 20260904025325 | 27 | 127 | 0.0 | 0.0 | 0.00 | 0.43 | 0.43 | 80 | 1015.6 |
| 20260904024830 | 27 | 127 | 0.0 | 0.0 | 0.00 | 0.43 | 0.43 | 80 | 1015.5 |
| 20260904024532 | 27 | 127 | 0.0 | 0.0 | 0.00 | 0.43 | 0.43 | 80 | 1015.6 |
| 20260904024333 | 27 | 127 | 0.0 | 0.0 | 0.00 | 0.43 | 0.43 | 80 | 1015.6 |
| 20260904023815 | 27 | 127 | 0.0 | 0.0 | 0.00 | 0.43 | 0.43 | 80 | 1015.5 |
| 20260904023319 | 27 | 127 | 0.0 | 0.0 | 0.00 | 0.43 | 0.43 | 79 | 1015.4 |
| 20260904023057 | 27 | 127 | 0.0 | 0.0 | 0.00 | 0.43 | 0.43 | 79 | 1015.4 |
| 20260904022818 | 27 | 127 | 0.0 | 0.0 | 0.00 | 0.43 | 0.43 | 79 | 1015.4 |
| 20260904022323 | 27 | 127 | 0.0 | 0.0 | 0.00 | 0.43 | 0.43 | 78 | 1015.4 |
| 20260904021829 | 27 | 127 | 0.0 | 0.0 | 0.00 | 0.43 | 0.43 | 78 | 1015.4 |
| 20260904021528 | 27 | 127 | 0.0 | 0.0 | 0.00 | 0.43 | 0.43 | 77 | 1015.3 |
| 20260904021334 | 27 | 127 | 0.0 | 0.0 | 0.00 | 0.43 | 0.43 | 78 | 1015.2 |
| 20260904020816 | 27 | 127 | 0.0 | 0.0 | 0.00 | 0.43 | 0.43 | 77 | 1015.3 |
| 20260904020316 | 28 | 127 | 0.0 | 1.6 | 0.00 | 0.43 | 0.43 | 77 | 1015.3 |
| 20260904020047 | 27 | 127 | 0.0 | 1.6 | 0.00 | 0.43 | 0.43 | 77 | 1015.4 |
| 20260904015842 | 28 | 127 | 0.0 | 1.6 | 0.00 | 0.43 | 0.43 | 77 | 1015.3 |
| 20260904015324 | 28 | 127 | 0.0 | 1.6 | 0.00 | 0.43 | 0.43 | 77 | 1015.3 |
| 20260904014829 | 28 | 127 | 0.0 | 1.6 | 0.00 | 0.43 | 0.43 | 76 | 1015.3 |
| 20260904014528 | 27 | 127 | 0.0 | 4.8 | 0.00 | 0.43 | 0.43 | 76 | 1015.3 |
| 20260904014333 | 28 | 120 | 0.0 | 4.8 | 0.00 | 0.43 | 0.43 | 76 | 1015.2 |
| 20260904013834 | 28 | 126 | 1.6 | 4.8 | 0.00 | 0.43 | 0.43 | 76 | 1015.4 |
| 20260904013317 | 28 | 108 | 0.0 | 3.2 | 0.00 | 0.43 | 0.43 | 75 | 1015.2 |
| 20260904013023 | 28 | 115 | 0.0 | 4.8 | 0.00 | 0.43 | 0.43 | 76 | 1015.1 |
| 20260904012822 | 28 | 113 | 0.0 | 4.8 | 0.00 | 0.43 | 0.43 | 75 | 1015.2 |
| 20260904012326 | 28 | 118 | 1.6 | 4.8 | 0.00 | 0.43 | 0.43 | 76 | 1015.1 |
| 20260904011830 | 28 | 124 | 0.0 | 4.8 | 0.00 | 0.43 | 0.43 | 76 | 1015.1 |
| 20260904011524 | 27 | 122 | 1.6 | 4.8 | 0.00 | 0.43 | 0.43 | 76 | 1015.0 |
| 20260904011333 | 28 | 84 | 1.6 | 4.8 | 0.00 | 0.43 | 0.43 | 76 | 1015.0 |
| 20260904010818 | 27 | 84 | 1.6 | 4.8 | 0.00 | 0.43 | 0.43 | 77 | 1015.0 |
| 20260904010342 | 27 | 104 | 1.6 | 4.8 | 0.00 | 0.43 | 0.43 | 78 | 1014.9 |
| 20260904010010 | 27 | 127 | 0.0 | 0.0 | 0.00 | 0.43 | 0.43 | 79 | 1014.9 |
| 20260904005821 | 27 | 128 | 0.0 | 0.0 | 0.00 | 0.43 | 0.43 | 79 | 1014.9 |
| 20260904005314 | 27 | 167 | 0.0 | 0.0 | 0.00 | 0.43 | 0.43 | 80 | 1014.9 |
| 20260904004826 | 27 | 167 | 0.0 | 1.6 | 0.00 | 0.43 | 0.43 | 80 | 1014.9 |
| 20260904004526 | 27 | 270 | 0.0 | 1.6 | 0.00 | 0.43 | 0.43 | 80 | 1015.0 |
| 20260904004331 | 27 | 270 | 0.0 | 1.6 | 0.00 | 0.43 | 0.43 | 80 | 1014.9 |
| 20260904003816 | 27 | 270 | 0.0 | 1.6 | 0.00 | 0.43 | 0.43 | 81 | 1014.8 |
| 20260904003320 | 26 | 270 | 0.0 | 1.6 | 0.00 | 0.43 | 0.43 | 82 | 1014.9 |
| 20260904003024 | 26 | 270 | 0.0 | 0.0 | 0.00 | 0.43 | 0.43 | 82 | 1014.8 |
| 20260904002824 | 26 | 270 | 0.0 | 0.0 | 0.00 | 0.43 | 0.43 | 82 | 1014.7 |
| 20260904002321 | 26 | 270 | 0.0 | 0.0 | 0.00 | 0.43 | 0.43 | 82 | 1014.8 |
| 20260904001824 | 26 | 270 | 0.0 | 0.0 | 0.00 | 0.43 | 0.43 | 82 | 1014.8 |
| 20260904001509 | 26 | 270 | 0.0 | 0.0 | 0.00 | 0.43 | 0.43 | 81 | 1014.8 |
| 20260904001310 | 26 | 270 | 0.0 | 0.0 | 0.00 | 0.43 | 0.43 | 81 | 1014.8 |
| 20260904000814 | 26 | 270 | 0.0 | 0.0 | 0.00 | 0.43 | 0.43 | 80 | 1014.7 |
| 20260904000318 | 27 | 270 | 0.0 | 0.0 | 0.00 | 0.43 | 0.43 | 80 | 1014.6 |
| 20260904000008 | 26 | 270 | 0.0 | 0.0 | 0.00 | 0.43 | 0.43 | 80 | 1014.6 |
| 20260903235822 | 27 | 270 | 0.0 | 0.0 | 0.00 | 0.43 | 0.43 | 80 | 1014.6 |
| 20260903235347 | 27 | 270 | 0.0 | 0.0 | 0.00 | 0.43 | 0.43 | 80 | 1014.6 |
| 20260903234810 | 27 | 270 | 0.0 | 0.0 | 0.00 | 0.43 | 0.43 | 80 | 1014.6 |
| 20260903234322 | 27 | 270 | 0.0 | 0.0 | 0.00 | 0.43 | 0.43 | 80 | 1014.5 |
| 20260903233814 | 27 | 270 | 0.0 | 0.0 | 0.00 | 0.43 | 0.43 | 80 | 1014.4 |
| 20260903233319 | 27 | 270 | 0.0 | 0.0 | 0.00 | 0.43 | 0.43 | 80 | 1014.5 |
| 20260903233045 | 27 | 270 | 0.0 | 0.0 | 0.00 | 0.43 | 0.43 | 80 | 1014.4 |
| 20260903232823 | 27 | 270 | 0.0 | 0.0 | 0.00 | 0.43 | 0.43 | 80 | 1014.4 |
| 20260903232357 | 27 | 270 | 0.0 | 0.0 | 0.00 | 0.43 | 0.43 | 79 | 1014.5 |
| 20260903231544 | 27 | 270 | 0.0 | 1.6 | 0.00 | 0.43 | 0.43 | 79 | 1014.4 |
| 20260903231329 | 27 | 270 | 0.0 | 1.6 | 0.00 | 0.43 | 0.43 | 78 | 1014.5 |
| 20260903230832 | 27 | 241 | 0.0 | 0.0 | 0.00 | 0.43 | 0.43 | 78 | 1014.5 |
| 20260903230336 | 27 | 241 | 0.0 | 0.0 | 0.00 | 0.43 | 0.43 | 78 | 1014.5 |
| 20260903230008 | 27 | 242 | 0.0 | 0.0 | 0.00 | 0.43 | 0.43 | 78 | 1014.5 |
| 20260903225817 | 27 | 241 | 0.0 | 0.0 | 0.00 | 0.43 | 0.43 | 78 | 1014.5 |
| 20260903225321 | 27 | 241 | 0.0 | 0.0 | 0.00 | 0.43 | 0.43 | 78 | 1014.4 |
| 20260903224824 | 27 | 241 | 0.0 | 1.6 | 0.00 | 0.43 | 0.43 | 78 | 1014.5 |
| 20260903224508 | 27 | 242 | 0.0 | 4.8 | 0.00 | 0.43 | 0.43 | 77 | 1014.6 |
| 20260903224328 | 27 | 242 | 0.0 | 4.8 | 0.00 | 0.43 | 0.43 | 77 | 1014.5 |
| 20260903223829 | 27 | 233 | 1.6 | 3.2 | 0.00 | 0.43 | 0.43 | 77 | 1014.4 |
| 20260903223313 | 27 | 250 | 0.0 | 8.0 | 0.00 | 0.43 | 0.43 | 77 | 1014.3 |
| 20260903223001 | 27 | 238 | 1.6 | 8.0 | 0.00 | 0.43 | 0.43 | 77 | 1014.3 |
| 20260903222813 | 27 | 234 | 3.2 | 8.0 | 0.00 | 0.43 | 0.43 | 76 | 1014.2 |
| 20260903222316 | 27 | 238 | 1.6 | 3.2 | 0.00 | 0.43 | 0.43 | 77 | 1014.1 |
| 20260903221819 | 27 | 232 | 0.0 | 3.2 | 0.00 | 0.43 | 0.43 | 76 | 1014.0 |
| 20260903221548 | 27 | 196 | 0.0 | 3.2 | 0.00 | 0.43 | 0.43 | 77 | 1013.9 |
| 20260903221324 | 28 | 225 | 0.0 | 3.2 | 0.00 | 0.43 | 0.43 | 76 | 1013.9 |
| 20260903220826 | 28 | 217 | 0.0 | 6.4 | 0.00 | 0.43 | 0.43 | 76 | 1013.9 |
| 20260903220330 | 28 | 238 | 1.6 | 8.0 | 0.00 | 0.43 | 0.43 | 75 | 1014.0 |
| 20260903220033 | 28 | 49 | 0.0 | 8.0 | 0.00 | 0.43 | 0.43 | 75 | 1014.0 |
| 20260903215814 | 28 | 224 | 3.2 | 8.0 | 0.00 | 0.43 | 0.43 | 76 | 1014.1 |
| 20260903215317 | 28 | 214 | 0.0 | 3.2 | 0.00 | 0.43 | 0.43 | 77 | 1013.9 |
| 20260903214818 | 29 | 217 | 1.6 | 4.8 | 0.00 | 0.43 | 0.43 | 76 | 1013.8 |
| 20260903214603 | 28 | 212 | 0.0 | 4.8 | 0.00 | 0.43 | 0.43 | 75 | 1013.7 |
| 20260903214323 | 29 | 245 | 1.6 | 4.8 | 0.00 | 0.43 | 0.43 | 74 | 1013.7 |
| 20260903213829 | 30 | 243 | 1.6 | 4.8 | 0.00 | 0.43 | 0.43 | 73 | 1013.7 |
| 20260903213329 | 30 | 248 | 0.0 | 1.6 | 0.00 | 0.43 | 0.43 | 72 | 1013.7 |
| 20260903213035 | 30 | 102 | 0.0 | 0.0 | 0.00 | 0.43 | 0.43 | 72 | 1013.7 |
| 20260903212833 | 30 | 102 | 0.0 | 0.0 | 0.00 | 0.43 | 0.43 | 71 | 1013.8 |
| 20260903212316 | 30 | 102 | 0.0 | 0.0 | 0.00 | 0.43 | 0.43 | 69 | 1013.9 |
| 20260903211821 | 30 | 102 | 0.0 | 1.6 | 0.00 | 0.43 | 0.43 | 68 | 1013.8 |
| 20260903211605 | 30 | 102 | 0.0 | 1.6 | 0.00 | 0.43 | 0.43 | 70 | 1013.7 |
| 20260903211318 | 30 | 102 | 0.0 | 1.6 | 0.00 | 0.43 | 0.43 | 69 | 1013.7 |
| 20260903210823 | 30 | 72 | 0.0 | 1.6 | 0.00 | 0.43 | 0.43 | 71 | 1013.7 |
| 20260903210320 | 30 | 71 | 0.0 | 1.6 | 0.00 | 0.43 | 0.43 | 72 | 1013.6 |
| 20260903210058 | 28 | 71 | 0.0 | 3.2 | 0.00 | 0.43 | 0.43 | 73 | 1013.6 |
| 20260903205823 | 28 | 70 | 0.0 | 3.2 | 0.00 | 0.43 | 0.43 | 72 | 1013.5 |
| 20260903205350 | 28 | 77 | 1.6 | 3.2 | 0.00 | 0.43 | 0.43 | 73 | 1013.3 |
| 20260903204814 | 27 | 47 | 0.0 | 1.6 | 0.00 | 0.43 | 0.43 | 73 | 1013.4 |
| 20260903204510 | 27 | 311 | 0.0 | 0.0 | 0.00 | 0.43 | 0.43 | 78 | 1013.6 |
| 20260903204317 | 27 | 278 | 0.0 | 0.0 | 0.00 | 0.43 | 0.43 | 79 | 1013.7 |
| 20260903203822 | 27 | 5 | 0.0 | 0.0 | 0.00 | 0.43 | 0.43 | 79 | 1013.5 |
| 20260903203327 | 26 | 5 | 0.0 | 0.0 | 0.00 | 0.43 | 0.43 | 78 | 1013.6 |
| 20260903203012 | 26 | 5 | 0.0 | 0.0 | 0.00 | 0.43 | 0.43 | 79 | 1013.5 |
| 20260903202813 | 26 | 5 | 0.0 | 0.0 | 0.00 | 0.43 | 0.43 | 78 | 1013.5 |
| 20260903202312 | 26 | 5 | 0.0 | 1.6 | 0.00 | 0.43 | 0.43 | 80 | 1013.5 |
| 20260903201816 | 26 | 5 | 0.0 | 0.0 | 0.00 | 0.43 | 0.43 | 80 | 1013.6 |
| 20260903201600 | 26 | 5 | 0.0 | 1.6 | 0.00 | 0.43 | 0.43 | 81 | 1013.6 |
| 20260903201315 | 26 | 5 | 0.0 | 1.6 | 0.00 | 0.43 | 0.43 | 81 | 1013.7 |
| 20260903200819 | 26 | 5 | 0.0 | 1.6 | 0.05 | 0.43 | 0.43 | 81 | 1013.7 |
| 20260903200323 | 26 | 349 | 0.0 | 1.6 | 0.30 | 0.43 | 0.43 | 81 | 1013.7 |
| 20260903200116 | 25 | 347 | 0.0 | 1.6 | 0.30 | 0.43 | 0.43 | 81 | 1013.6 |
| 20260903195826 | 26 | 347 | 0.0 | 1.6 | 0.33 | 0.46 | 0.43 | 81 | 1013.6 |
| 20260903195309 | 25 | 335 | 0.0 | 1.6 | 0.38 | 0.46 | 0.43 | 80 | 1013.5 |
| 20260903194822 | 25 | 269 | 0.0 | 4.8 | 0.41 | 0.46 | 0.43 | 79 | 1013.7 |
| 20260903194504 | 25 | 269 | 0.0 | 4.8 | 0.41 | 0.46 | 0.43 | 79 | 1013.7 |
| 20260903194326 | 26 | 252 | 1.6 | 4.8 | 0.41 | 0.46 | 0.43 | 78 | 1013.8 |
| 20260903193809 | 26 | 328 | 0.0 | 1.6 | 0.41 | 0.46 | 0.43 | 79 | 1013.9 |
| 20260903193314 | 26 | 330 | 0.0 | 4.8 | 0.41 | 0.46 | 0.43 | 77 | 1014.2 |
| 20260903193007 | 26 | 341 | 0.0 | 6.4 | 0.41 | 0.46 | 0.43 | 76 | 1014.4 |
| 20260903192818 | 26 | 247 | 0.0 | 6.4 | 0.41 | 0.46 | 0.43 | 78 | 1014.4 |
| 20260903192323 | 26 | 48 | 3.2 | 6.4 | 0.41 | 0.46 | 0.43 | 74 | 1014.6 |
| 20260903191826 | 27 | 30 | 0.0 | 6.4 | 0.41 | 0.46 | 0.43 | 77 | 1014.4 |
| 20260903191512 | 27 | 37 | 0.0 | 6.4 | 0.41 | 0.46 | 0.43 | 74 | 1014.2 |
| 20260903191311 | 27 | 264 | 1.6 | 6.4 | 0.41 | 0.46 | 0.43 | 72 | 1014.2 |
| 20260903190814 | 28 | 210 | 0.0 | 8.0 | 0.36 | 0.41 | 0.38 | 71 | 1014.3 |
| 20260903190315 | 30 | 279 | 1.6 | 8.0 | 0.10 | 0.15 | 0.13 | 70 | 1014.2 |
| 20260903190004 | 31 | 229 | 1.6 | 8.0 | 0.08 | 0.13 | 0.10 | 68 | 1014.2 |
| 20260903185819 | 32 | 80 | 1.6 | 11.3 | 0.08 | 0.79 | 0.10 | 68 | 1014.1 |
| 20260903185317 | 32 | 159 | 1.6 | 11.3 | 0.03 | 0.74 | 0.05 | 64 | 1013.7 |
| 20260903184820 | 33 | 75 | 1.6 | 8.0 | 0.00 | 0.71 | 0.03 | 60 | 1013.5 |
| 20260903184537 | 33 | 61 | 3.2 | 8.0 | 0.00 | 0.71 | 0.03 | 58 | 1013.7 |
| 20260903184346 | 33 | 70 | 4.8 | 8.0 | 0.00 | 0.71 | 0.03 | 57 | 1013.8 |
| 20260903183822 | 34 | 107 | 1.6 | 6.4 | 0.00 | 0.71 | 0.03 | 54 | 1013.7 |
| 20260903183327 | 35 | 57 | 1.6 | 6.4 | 0.00 | 0.71 | 0.03 | 53 | 1013.7 |
| 20260903183001 | 35 | 229 | 0.0 | 6.4 | 0.00 | 0.71 | 0.03 | 54 | 1013.6 |
| 20260903182326 | 33 | 90 | 3.2 | 6.4 | 0.00 | 0.71 | 0.03 | 55 | 1013.7 |